createdAt,value
2023-01-13T00:00:36.458Z,4.63
2023-01-13T00:03:03.494Z,5.10
2023-01-13T00:05:30.437Z,5.65
2023-01-13T00:07:57.230Z,5.65
2023-01-13T00:10:25.494Z,5.82
2023-01-13T00:12:53.537Z,6.65
2023-01-13T00:15:20.446Z,4.80
2023-01-13T00:17:48.776Z,5.47
2023-01-13T00:20:16.356Z,5.35
2023-01-13T00:22:43.221Z,5.68
2023-01-13T00:25:10.312Z,6.70
2023-01-13T00:27:39.017Z,5.47
2023-01-13T00:30:07.557Z,5.30
2023-01-13T00:32:34.628Z,5.53
2023-01-13T00:35:01.558Z,6.30
2023-01-13T00:37:28.494Z,6.40
2023-01-13T00:39:55.370Z,6.40
2023-01-13T00:42:42.487Z,5.65
2023-01-13T00:45:11.311Z,6.07
2023-01-13T00:47:38.157Z,5.80
2023-01-13T00:50:05.657Z,5.40
2023-01-13T00:52:32.650Z,5.15
2023-01-13T00:55:00.869Z,5.22
2023-01-13T00:57:28.005Z,4.47
2023-01-13T00:59:54.926Z,5.47
2023-01-13T01:02:23.304Z,4.47
2023-01-13T01:04:50.279Z,5.17
2023-01-13T01:07:17.409Z,4.60
2023-01-13T01:09:44.510Z,5.30
2023-01-13T01:12:11.496Z,4.20
2023-01-13T01:14:38.373Z,5.17
2023-01-13T01:17:05.246Z,5.10
2023-01-13T01:19:37.381Z,4.60
2023-01-13T01:22:04.516Z,4.25
2023-01-13T01:24:31.384Z,3.83
2023-01-13T01:26:58.218Z,4.30
2023-01-13T01:29:25.088Z,6.35
2023-01-13T01:31:51.919Z,3.83
2023-01-13T01:34:18.903Z,4.70
2023-01-13T01:36:47.170Z,5.32
2023-01-13T01:39:13.993Z,5.10
2023-01-13T01:42:00.999Z,5.53
2023-01-13T01:44:52.526Z,4.10
2023-01-13T01:47:20.475Z,3.88
2023-01-13T01:49:48.841Z,4.82
2023-01-13T01:52:23.859Z,3.95
2023-01-13T01:54:54.827Z,2.75
2023-01-13T01:57:27.763Z,2.97
2023-01-13T01:59:54.942Z,1.83
2023-01-13T02:02:22.639Z,2.90
2023-01-13T02:04:53.783Z,1.85
2023-01-13T02:07:26.350Z,2.00
2023-01-13T02:22:25.289Z,2.47
2023-01-13T02:25:12.408Z,2.35
2023-01-13T02:28:19.649Z,2.10
2023-01-13T02:31:12.014Z,1.13
2023-01-13T02:33:56.931Z,1.07
2023-01-13T02:36:30.535Z,1.15
2023-01-13T02:39:04.231Z,1.15
2023-01-13T02:42:31.605Z,1.02
2023-01-13T02:45:04.868Z,1.03
2023-01-13T02:47:36.712Z,1.33
2023-01-13T02:50:07.693Z,1.50
2023-01-13T02:52:38.428Z,1.37
2023-01-13T02:55:10.715Z,1.50
2023-01-13T02:57:39.754Z,1.23
2023-01-13T03:00:51.822Z,1.60
2023-01-13T03:03:20.238Z,1.95
2023-01-13T03:05:49.838Z,1.65
2023-01-13T03:08:27.199Z,2.10
2023-01-13T03:11:05.792Z,1.83
2023-01-13T03:14:09.052Z,2.50
2023-01-13T03:16:48.070Z,1.53
2023-01-13T03:19:25.334Z,3.05
2023-01-13T03:21:57.335Z,2.03
2023-01-13T03:24:30.531Z,2.33
2023-01-13T03:27:04.529Z,3.45
2023-01-13T03:30:27.112Z,3.93
2023-01-13T03:32:59.689Z,3.60
2023-01-13T03:35:31.191Z,2.87
2023-01-13T03:38:02.833Z,3.20
2023-01-13T03:40:33.467Z,2.85
2023-01-13T03:43:24.174Z,3.55
2023-01-13T03:45:57.457Z,2.83
2023-01-13T03:48:28.132Z,3.72
2023-01-13T03:51:03.194Z,2.63
2023-01-13T03:53:33.361Z,3.45
2023-01-13T03:56:07.621Z,3.78
2023-01-13T03:58:39.105Z,3.40
2023-01-13T04:01:13.000Z,3.20
2023-01-13T04:06:17.080Z,2.57
2023-01-13T04:08:50.136Z,5.53
2023-01-13T04:11:22.564Z,3.35
2023-01-13T04:13:50.329Z,3.63
2023-01-13T04:16:17.596Z,4.00
2023-01-13T04:18:44.498Z,2.90
2023-01-13T04:21:12.766Z,3.90
2023-01-13T04:23:52.026Z,3.17
2023-01-13T04:26:19.837Z,3.40
2023-01-13T04:28:46.839Z,3.85
2023-01-13T04:31:13.921Z,3.87
2023-01-13T04:36:48.427Z,3.40
2023-01-13T04:39:46.748Z,3.47
2023-01-13T04:42:19.388Z,3.92
2023-01-13T04:45:05.960Z,4.47
2023-01-13T04:47:51.114Z,2.92
2023-01-13T04:50:21.035Z,3.65
2023-01-13T04:52:57.376Z,3.10
2023-01-13T04:56:03.451Z,3.90
2023-01-13T04:58:50.810Z,3.47
2023-01-13T05:01:24.102Z,3.03
2023-01-13T05:04:07.475Z,4.50
2023-01-13T05:06:58.872Z,3.40
2023-01-13T05:09:43.685Z,2.97
2023-01-13T05:12:29.647Z,3.92
2023-01-13T05:15:43.890Z,5.80
2023-01-13T05:21:33.863Z,2.73
2023-01-13T05:24:19.330Z,3.60
2023-01-13T05:26:52.412Z,3.70
2023-01-13T05:29:30.808Z,4.50
2023-01-13T05:32:02.655Z,3.50
2023-01-13T05:34:30.108Z,3.10
2023-01-13T05:36:59.286Z,4.07
2023-01-13T05:39:51.622Z,4.23
2023-01-13T05:42:42.796Z,2.87
2023-01-13T05:45:11.058Z,4.63
2023-01-13T05:47:42.436Z,3.00
2023-01-13T05:50:29.399Z,4.67
2023-01-13T05:52:59.379Z,4.50
2023-01-13T05:55:26.260Z,4.30
2023-01-13T05:57:54.544Z,3.43
2023-01-13T06:00:21.762Z,4.38
2023-01-13T06:02:49.282Z,4.63
2023-01-13T06:05:16.296Z,4.70
2023-01-13T06:07:43.192Z,4.50
2023-01-13T06:10:11.174Z,4.47
2023-01-13T06:12:38.198Z,4.57
2023-01-13T06:15:07.576Z,3.97
2023-01-13T06:17:34.526Z,4.67
2023-01-13T06:20:01.599Z,5.00
2023-01-13T06:22:35.659Z,4.93
2023-01-13T06:25:03.989Z,5.40
2023-01-13T06:27:31.153Z,5.37
2023-01-13T06:29:58.368Z,4.03
2023-01-13T06:32:32.079Z,4.47
2023-01-13T06:35:05.460Z,4.35
2023-01-13T06:37:33.497Z,4.03
2023-01-13T06:40:02.853Z,4.43
2023-01-13T06:42:59.040Z,4.97
2023-01-13T06:45:30.038Z,6.10
2023-01-13T06:48:00.010Z,4.90
2023-01-13T06:50:28.366Z,4.37
2023-01-13T06:52:55.634Z,4.07
2023-01-13T06:55:22.665Z,4.63
2023-01-13T06:57:51.311Z,4.87
2023-01-13T07:00:19.795Z,4.67
2023-01-13T07:02:47.185Z,4.13
2023-01-13T07:05:16.050Z,4.60
2023-01-13T07:07:43.153Z,3.53
2023-01-13T07:10:13.211Z,4.93
2023-01-13T07:13:00.056Z,3.40
2023-01-13T07:15:27.260Z,4.93
2023-01-13T07:17:54.368Z,5.50
2023-01-13T07:20:23.027Z,4.80
2023-01-13T07:22:54.572Z,3.60
2023-01-13T07:25:21.761Z,5.03
2023-01-13T07:27:48.647Z,4.10
2023-01-13T07:30:15.694Z,4.83
2023-01-13T07:32:42.555Z,4.00
2023-01-13T07:35:09.753Z,4.63
2023-01-13T07:37:39.477Z,5.30
2023-01-13T07:40:08.063Z,4.80
2023-01-13T07:42:57.330Z,4.40
2023-01-13T07:45:24.301Z,4.00
2023-01-13T07:47:53.193Z,4.40
2023-01-13T07:50:21.729Z,4.33
2023-01-13T07:52:50.462Z,5.30
2023-01-13T07:55:17.481Z,4.32
2023-01-13T07:57:44.700Z,4.80
2023-01-13T08:00:13.138Z,5.13
2023-01-13T08:02:40.157Z,4.78
2023-01-13T08:05:08.021Z,4.03
2023-01-13T08:07:35.612Z,5.47
2023-01-13T08:10:06.999Z,4.45
2023-01-13T08:12:57.107Z,5.30
2023-01-13T08:15:24.304Z,5.03
2023-01-13T08:17:52.635Z,4.83
2023-01-13T08:20:21.519Z,4.40
2023-01-13T08:22:49.439Z,3.40
2023-01-13T08:25:18.782Z,4.63
2023-01-13T08:27:49.398Z,4.63
2023-01-13T08:30:18.440Z,5.47
2023-01-13T08:32:47.997Z,4.80
2023-01-13T08:35:17.502Z,4.53
2023-01-13T08:37:44.652Z,5.07
2023-01-13T08:40:13.468Z,4.77
2023-01-13T08:42:48.507Z,3.47
2023-01-13T08:45:18.404Z,4.75
2023-01-13T08:47:46.002Z,5.32
2023-01-13T08:50:14.589Z,5.00
2023-01-13T08:52:45.631Z,4.35
2023-01-13T08:55:18.346Z,4.57
2023-01-13T08:57:54.471Z,4.25
2023-01-13T09:00:25.323Z,3.67
2023-01-13T09:02:54.600Z,4.43
2023-01-13T09:05:26.629Z,4.45
2023-01-13T09:07:55.520Z,3.97
2023-01-13T09:10:24.049Z,4.93
2023-01-13T09:13:14.031Z,4.60
2023-01-13T09:15:43.965Z,4.35
2023-01-13T09:18:11.535Z,3.45
2023-01-13T09:20:40.670Z,5.22
2023-01-13T09:23:10.948Z,4.28
2023-01-13T09:25:39.879Z,3.47
2023-01-13T09:28:09.763Z,4.32
2023-01-13T09:30:38.577Z,3.47
2023-01-13T09:33:24.745Z,5.00
2023-01-13T09:35:53.432Z,3.88
2023-01-13T09:38:23.436Z,3.85
2023-01-13T09:40:51.760Z,3.75
2023-01-13T09:43:44.922Z,4.28
2023-01-13T09:46:39.035Z,4.50
2023-01-13T09:49:13.959Z,3.95
2023-01-13T09:51:49.866Z,4.80
2023-01-13T09:54:25.280Z,4.40
2023-01-13T09:56:53.440Z,3.85
2023-01-13T09:59:22.552Z,4.32
2023-01-13T10:01:57.513Z,2.72
2023-01-13T10:04:24.793Z,4.38
2023-01-13T10:06:56.765Z,4.13
2023-01-13T10:09:35.004Z,3.00
2023-01-13T10:12:24.482Z,3.47
2023-01-13T10:14:56.128Z,3.75
2023-01-13T10:17:31.395Z,3.28
2023-01-13T10:20:11.595Z,3.13
2023-01-13T10:23:01.990Z,4.28
2023-01-13T10:25:46.807Z,4.40
2023-01-13T10:28:18.523Z,2.97
2023-01-13T10:30:52.425Z,3.00
2023-01-13T11:03:54.600Z,3.28
2023-01-13T11:06:25.169Z,3.53
2023-01-13T11:08:55.372Z,3.75
2023-01-13T11:11:39.472Z,2.63
2023-01-13T11:16:57.840Z,2.65
2023-01-13T11:19:29.446Z,3.08
2023-01-13T11:22:01.710Z,3.65
2023-01-13T11:24:36.913Z,3.70
2023-01-13T11:27:12.679Z,2.78
2023-01-13T11:29:51.389Z,2.90
2023-01-13T11:32:21.556Z,3.35
2023-01-13T11:34:54.548Z,3.33
2023-01-13T11:37:25.097Z,2.90
2023-01-13T11:40:01.763Z,2.15
2023-01-13T11:42:36.560Z,3.05
2023-01-13T11:45:13.186Z,2.78
2023-01-13T11:47:40.091Z,3.15
2023-01-13T11:50:18.930Z,2.60
2023-01-13T11:53:21.216Z,3.70
2023-01-13T11:55:57.526Z,3.25
2023-01-13T11:58:49.585Z,3.65
2023-01-13T12:01:36.583Z,2.75
2023-01-13T12:04:22.066Z,3.13
2023-01-13T12:06:57.327Z,2.80
2023-01-13T12:09:39.708Z,4.00
2023-01-13T12:12:20.351Z,2.85
2023-01-13T12:15:13.960Z,2.53
2023-01-13T12:17:51.884Z,2.80
2023-01-13T12:20:29.237Z,3.38
2023-01-13T12:23:02.784Z,3.20
2023-01-13T12:25:37.535Z,2.67
2023-01-13T12:28:11.579Z,3.78
2023-01-13T12:30:42.723Z,3.22
2023-01-13T12:35:55.247Z,3.33
2023-01-13T12:38:34.429Z,2.80
2023-01-13T12:41:15.053Z,2.92
2023-01-13T12:44:05.286Z,3.75
2023-01-13T12:46:53.469Z,4.35
2023-01-13T12:49:31.365Z,3.78
2023-01-13T12:52:20.031Z,3.08
2023-01-13T12:55:19.080Z,3.03
2023-01-13T12:58:02.917Z,2.63
2023-01-13T13:00:38.327Z,3.42
2023-01-13T13:03:32.423Z,3.28
2023-01-13T13:06:18.561Z,3.15
2023-01-13T13:08:58.435Z,3.70
2023-01-13T13:11:58.233Z,3.35
2023-01-13T13:15:04.655Z,2.97
2023-01-13T13:17:44.541Z,3.28
2023-01-13T13:20:50.846Z,4.63
2023-01-13T13:24:04.206Z,4.25
2023-01-13T13:26:54.213Z,3.22
2023-01-13T13:29:47.901Z,2.83
2023-01-13T13:33:09.562Z,3.17
2023-01-13T13:36:12.928Z,3.78
2023-01-13T13:39:39.982Z,3.28
2023-01-13T13:42:43.621Z,3.38
2023-01-13T13:45:40.015Z,3.20
2023-01-13T13:48:23.595Z,3.38
2023-01-13T13:50:57.715Z,3.25
2023-01-13T13:53:32.048Z,3.20
2023-01-13T13:56:06.704Z,3.03
2023-01-13T13:59:01.519Z,2.85
2023-01-13T14:05:21.613Z,3.15
2023-01-13T14:12:22.522Z,3.40
2023-01-13T14:14:51.388Z,3.30
2023-01-13T14:17:25.252Z,2.97
2023-01-13T14:22:20.159Z,3.42
2023-01-13T14:24:51.164Z,3.10
2023-01-13T14:27:19.075Z,3.83
2023-01-13T14:29:46.006Z,3.25
2023-01-13T14:32:18.546Z,3.53
2023-01-13T14:34:45.708Z,3.65
2023-01-13T14:37:31.218Z,3.13
2023-01-13T14:39:58.104Z,3.53
2023-01-13T14:42:27.591Z,3.50
2023-01-13T14:44:56.257Z,3.35
2023-01-13T14:47:28.025Z,3.45
2023-01-13T14:50:03.203Z,2.78
2023-01-13T14:52:32.305Z,2.65
2023-01-13T14:55:23.720Z,2.92
2023-01-13T14:57:51.021Z,4.38
2023-01-13T15:00:27.642Z,3.10
2023-01-13T15:03:08.035Z,3.83
2023-01-13T15:05:42.762Z,2.53
2023-01-13T15:08:28.013Z,4.50
2023-01-13T15:11:00.047Z,3.95
2023-01-13T15:13:33.526Z,4.40
2023-01-13T15:16:03.137Z,3.50
2023-01-13T15:18:31.812Z,3.33
2023-01-13T15:20:58.706Z,3.47
2023-01-13T15:23:25.621Z,4.63
2023-01-13T15:25:52.518Z,4.28
2023-01-13T15:28:21.907Z,4.00
2023-01-13T15:30:50.176Z,3.85
2023-01-13T15:33:17.919Z,3.95
2023-01-13T15:35:47.685Z,4.25
2023-01-13T15:38:17.072Z,3.40
2023-01-13T15:40:44.015Z,4.82
2023-01-13T15:43:32.778Z,4.60
2023-01-13T15:46:18.477Z,4.15
2023-01-13T15:48:46.030Z,8.77
2023-01-13T15:51:21.207Z,4.35
2023-01-13T15:53:48.268Z,4.45
2023-01-13T15:56:21.785Z,4.65
2023-01-13T15:58:48.627Z,5.15
2023-01-13T16:01:15.628Z,10.98
2023-01-13T16:03:42.646Z,11.00
2023-01-13T16:06:16.304Z,7.97
2023-01-13T16:08:44.700Z,24.00
2023-01-13T16:11:12.100Z,9.70
2023-01-13T16:13:38.945Z,12.05
2023-01-13T16:16:15.988Z,7.80
2023-01-13T16:18:42.872Z,11.27
2023-01-13T16:21:12.228Z,11.20
2023-01-13T16:23:39.097Z,12.13
2023-01-13T16:26:07.662Z,8.35
2023-01-13T16:28:35.934Z,6.53
2023-01-13T16:31:19.933Z,5.25
2023-01-13T16:33:46.875Z,3.45
2023-01-13T16:36:15.912Z,5.45
2023-01-13T16:38:43.447Z,5.07
2023-01-13T16:41:11.853Z,5.93
2023-01-13T16:43:39.652Z,3.88
2023-01-13T16:46:25.414Z,6.20
2023-01-13T16:48:53.623Z,6.90
2023-01-13T16:51:21.461Z,5.55
2023-01-13T16:53:51.038Z,5.18
2023-01-13T16:56:27.190Z,5.95
2023-01-13T16:58:55.434Z,5.32
2023-01-13T17:01:25.006Z,4.75
2023-01-13T17:03:52.821Z,6.35
2023-01-13T17:06:24.346Z,6.28
2023-01-13T17:08:53.218Z,5.97
2023-01-13T17:11:20.771Z,5.05
2023-01-13T17:13:49.079Z,5.07
2023-01-13T17:16:21.847Z,6.00
2023-01-13T17:18:49.006Z,5.97
2023-01-13T17:21:16.300Z,5.07
2023-01-13T17:23:43.522Z,6.70
2023-01-13T17:29:27.781Z,4.70
2023-01-13T17:31:55.181Z,4.25
2023-01-13T17:34:22.348Z,4.70
2023-01-13T17:36:49.592Z,4.60
2023-01-13T17:39:18.091Z,4.53
2023-01-13T17:41:45.432Z,4.97
2023-01-13T17:44:14.550Z,5.18
2023-01-13T17:46:43.710Z,9.07
2023-01-13T17:49:11.292Z,17.85
2023-01-13T17:51:38.229Z,9.02
2023-01-13T17:54:05.390Z,9.38
2023-01-13T17:56:32.417Z,5.93
2023-01-13T17:58:59.670Z,6.38
2023-01-13T18:01:30.721Z,7.93
2023-01-13T18:03:59.457Z,6.63
2023-01-13T18:06:26.640Z,5.65
2023-01-13T18:08:53.650Z,5.82
2023-01-13T18:11:22.484Z,5.70
2023-01-13T18:13:52.453Z,5.10
2023-01-13T18:17:15.297Z,4.43
2023-01-13T18:20:02.312Z,4.63
2023-01-13T18:22:47.512Z,5.40
2023-01-13T18:25:32.988Z,6.68
2023-01-13T18:28:03.964Z,5.32
2023-01-13T18:30:31.056Z,6.40
2023-01-13T18:33:04.583Z,5.60
2023-01-13T18:36:53.985Z,6.28
2023-01-13T18:39:48.603Z,6.57
2023-01-13T18:42:56.963Z,6.90
2023-01-13T18:46:11.850Z,6.57
2023-01-13T18:49:12.742Z,5.75
2023-01-13T18:51:50.958Z,5.78
2023-01-13T18:54:46.052Z,5.25
2023-01-13T19:01:34.098Z,5.13
2023-01-13T19:04:44.656Z,5.63
2023-01-13T19:07:21.843Z,6.75
2023-01-13T19:09:50.062Z,6.07
2023-01-13T19:12:23.693Z,5.45
2023-01-13T19:14:50.726Z,5.60
2023-01-13T19:17:17.784Z,5.03
2023-01-13T19:19:46.199Z,6.17
2023-01-13T19:22:17.360Z,5.38
2023-01-13T19:24:44.386Z,4.50
2023-01-13T19:27:14.501Z,4.57
2023-01-13T19:29:45.492Z,5.40
2023-01-13T19:32:19.829Z,5.35
2023-01-13T19:34:49.185Z,4.47
2023-01-13T19:37:17.540Z,6.35
2023-01-13T19:44:04.306Z,5.97
2023-01-13T19:46:31.364Z,6.32
2023-01-13T19:48:58.354Z,4.20
2023-01-13T19:51:25.377Z,3.97
2023-01-13T19:53:53.730Z,4.18
2023-01-13T19:56:20.567Z,3.67
2023-01-13T19:58:50.801Z,3.22
2023-01-13T20:01:17.902Z,4.75
2023-01-13T20:03:46.122Z,3.35
2023-01-13T20:06:14.089Z,4.72
2023-01-13T20:08:42.103Z,3.73
2023-01-13T20:11:21.479Z,3.67
2023-01-13T20:13:48.820Z,4.07
2023-01-13T20:16:15.979Z,9.23
2023-01-13T20:18:42.881Z,6.65
2023-01-13T20:21:09.859Z,7.78
2023-01-13T20:23:36.877Z,6.60
2023-01-13T20:26:07.641Z,5.78
2023-01-13T20:28:38.828Z,3.92
2023-01-13T20:31:07.237Z,4.47
2023-01-13T20:33:34.447Z,5.70
2023-01-13T20:36:01.563Z,4.77
2023-01-13T20:38:28.734Z,4.70
2023-01-13T20:40:59.332Z,5.13
2023-01-13T20:43:27.463Z,5.57
2023-01-13T20:45:55.776Z,4.93
2023-01-13T20:48:22.763Z,5.07
2023-01-13T20:50:54.162Z,4.00
2023-01-13T20:53:21.149Z,4.50
2023-01-13T20:55:48.169Z,4.18
2023-01-13T20:58:15.176Z,4.77
2023-01-13T21:00:42.229Z,4.55
2023-01-13T21:03:10.520Z,3.35
2023-01-13T21:05:37.496Z,4.93
2023-01-13T21:08:04.867Z,3.92
2023-01-13T21:10:31.939Z,4.75
2023-01-13T21:16:28.279Z,4.93
2023-01-13T21:19:09.398Z,5.23
2023-01-13T21:21:36.636Z,5.05
2023-01-13T21:24:04.860Z,5.63
2023-01-13T21:26:32.667Z,4.90
2023-01-13T21:29:00.362Z,5.20
2023-01-13T21:31:27.925Z,4.37
2023-01-13T21:33:57.451Z,4.60
2023-01-13T21:36:24.916Z,4.80
2023-01-13T21:38:52.360Z,4.73
2023-01-13T21:41:39.266Z,5.03
2023-01-13T21:44:24.821Z,4.97
2023-01-13T21:47:10.586Z,4.97
2023-01-13T21:49:44.087Z,4.33
2023-01-13T21:52:11.809Z,3.45
2023-01-13T21:54:58.834Z,4.40
2023-01-13T21:57:27.304Z,4.17
2023-01-13T21:59:54.412Z,3.90
2023-01-13T22:02:35.686Z,3.37
2023-01-13T22:05:06.528Z,4.80
2023-01-13T22:07:35.104Z,5.18
2023-01-13T22:10:02.549Z,5.30
2023-01-13T22:12:30.059Z,6.13
2023-01-13T22:14:57.400Z,5.40
2023-01-13T22:17:26.720Z,6.17
2023-01-13T22:19:56.617Z,4.65
2023-01-13T22:22:26.060Z,5.80
2023-01-13T22:24:53.672Z,4.80
2023-01-13T22:27:22.788Z,5.63
2023-01-13T22:29:50.528Z,6.30
2023-01-13T22:32:18.565Z,5.83
2023-01-13T22:34:45.459Z,6.33
2023-01-13T22:37:12.759Z,6.00
2023-01-13T22:39:41.240Z,6.30
2023-01-13T22:42:10.205Z,6.30
2023-01-13T22:44:37.150Z,4.67
2023-01-13T22:47:04.189Z,5.10
2023-01-13T22:49:31.215Z,4.87
2023-01-13T22:51:58.111Z,4.67
2023-01-13T22:54:24.968Z,4.83
2023-01-13T22:56:53.342Z,5.23
2023-01-13T22:59:21.993Z,5.40
2023-01-13T23:01:48.954Z,5.60
2023-01-13T23:04:16.071Z,4.93
2023-01-13T23:06:43.110Z,4.17
2023-01-13T23:09:10.209Z,5.17
2023-01-13T23:11:37.220Z,4.93
2023-01-13T23:14:07.666Z,4.93
2023-01-13T23:16:36.849Z,4.70
2023-01-13T23:19:04.470Z,5.37
2023-01-13T23:21:36.559Z,4.87
2023-01-13T23:24:04.300Z,5.37
2023-01-13T23:26:32.669Z,5.30
2023-01-13T23:29:00.884Z,5.63
2023-01-13T23:31:30.005Z,4.87
2023-01-13T23:33:57.011Z,4.93
2023-01-13T23:36:25.408Z,4.40
2023-01-13T23:38:53.009Z,4.87
2023-01-13T23:41:21.709Z,5.17
2023-01-13T23:43:53.004Z,4.93
2023-01-13T23:46:20.655Z,5.07
2023-01-13T23:48:49.933Z,3.87
2023-01-13T23:51:17.685Z,5.90
2023-01-13T23:53:47.162Z,4.93
2023-01-13T23:56:16.165Z,4.63
2023-01-13T23:58:43.569Z,4.23
